Bancroft, NE (68004)

18:05 CST le 21 novembre 2014 (GMT -0600)
6 miles south of Craig | Change Station
CLOSE
Current Station
Stations météorologiques personnelles
Location: Craig, NE
Altitude: 1290 ft
Stations météo à proximité

Alt. 1290 ft 41.70 °N, 96.36 °W | Updated 1 second ago

Nuageux
Nuageux
32.5 ° F
Paraît 32 ° F
N
3.0
Vent Variable Vent de SSE
Gusts 6.0 mph

Aujourd'hui
Haut(e) -- | Bas -- ° F
--% Risque de précip.
Hier
Haut(e) -- | Bas -- ° F
Precip. -- pouce
7:23 AM 5:00 PM
Lune descendante, 0% visible
Pression 29.97 pouce
Visibilité 10.0 Miles terrestres
Nuages Nuages épars 12000 ft
Refroidissement éolien 32 ° F
Point de rosée 27 ° F
Humidité 80%
Précipitations 0.00 pouce
Profondeur de la couche neigeuse Non disponible.
UV 0 sur 12
Pollen .10 sur 12
Qualité de l'air Non disponible.
Flu Activity Non disponible.
METAR KLCG 212355Z AUTO 17015KT 10SM SCT120 01/M02 A2997 RMK AO2 T00121016 10025 20005

More Conditions Fewer Conditions

Pression 29.97 pouce
Visibilité 10.0 Miles terrestres
Nuages Nuages épars 12000 ft
Refroidissement éolien 32 ° F
Point de rosée 27 ° F
Humidité 80%
Précipitations 0.00 pouce
Profondeur de la couche neigeuse Non disponible.
UV 0 sur 12
Pollen .10 sur 12
Qualité de l'air Non disponible.
Flu Activity Non disponible.
METAR KLCG 212355Z AUTO 17015KT 10SM SCT120 01/M02 A2997 RMK AO2 T00121016 10025 20005

More Conditions Fewer Conditions

10-Day Weather Forecast

Almanac

Astronomie

Nov. 21, 2014 Lever Coucher
Temps réel
Crépuscule civil
Crépuscule nautique
Crépuscule astronomique
Lune
Durée de lumière visible
Longueur du jour
Tomorrow will be .
, % of the Moon is Illuminated

Extrêmes aujourd'hui

State Highs State Lows

Community

WunderPhotos

Upload Photos

1,772,741 Photos téléchargées !

WunderBlogs® & News

Nearby

Qualité de l'air

  Qualité de l'air Indice de la qualité de l'air Polluant
Not available.

Épaisseur de neige

Station Depth Altitude

Activité sismique

Ville Distance Mag. Time & Date
Minimum magnitude displayed is 2.5.

Températures des eaux côtières

Lieu Température

Stations météo à proximité